createdAt,value
2023-01-17T00:00:56.037Z,3.97
2023-01-17T00:02:58.776Z,2.70
2023-01-17T00:05:20.588Z,3.53
2023-01-17T00:07:50.473Z,4.10
2023-01-17T00:09:56.820Z,2.97
2023-01-17T00:12:01.387Z,3.00
2023-01-17T00:14:04.361Z,2.70
2023-01-17T00:16:07.612Z,3.80
2023-01-17T00:18:10.419Z,3.07
2023-01-17T00:20:35.121Z,4.60
2023-01-17T00:22:55.911Z,2.77
2023-01-17T00:25:16.211Z,3.60
2023-01-17T00:27:17.853Z,6.50
2023-01-17T00:29:19.502Z,2.27
2023-01-17T00:31:21.252Z,3.27
2023-01-17T00:33:23.689Z,4.23
2023-01-17T00:35:29.291Z,3.83
2023-01-17T00:37:30.979Z,3.43
2023-01-17T00:39:32.631Z,3.23
2023-01-17T00:41:34.304Z,4.00
2023-01-17T00:43:55.048Z,3.90
2023-01-17T00:46:16.018Z,2.00
2023-01-17T00:48:36.039Z,3.53
2023-01-17T00:50:58.129Z,3.20
2023-01-17T00:53:22.293Z,5.33
2023-01-17T00:55:42.749Z,2.60
2023-01-17T00:58:02.640Z,4.43
2023-01-17T01:00:24.205Z,5.80
2023-01-17T01:02:45.431Z,3.77
2023-01-17T01:05:05.841Z,3.50
2023-01-17T01:07:27.510Z,3.00
2023-01-17T01:09:48.069Z,4.63
2023-01-17T01:12:08.463Z,2.30
2023-01-17T01:14:29.125Z,3.43
2023-01-17T01:16:49.136Z,4.00
2023-01-17T01:19:09.099Z,3.03
2023-01-17T01:21:29.164Z,5.30
2023-01-17T01:23:50.899Z,3.83
2023-01-17T01:26:11.053Z,2.67
2023-01-17T01:28:32.689Z,2.13
2023-01-17T01:30:53.047Z,1.97
2023-01-17T01:33:13.190Z,2.13
2023-01-17T01:35:16.794Z,1.80
2023-01-17T01:37:19.504Z,2.10
2023-01-17T01:39:23.609Z,3.00
2023-01-17T01:41:26.402Z,2.17
2023-01-17T01:43:45.244Z,2.90
2023-01-17T01:45:53.050Z,2.07
2023-01-17T01:48:00.424Z,2.70
2023-01-17T01:50:06.111Z,2.90
2023-01-17T01:52:10.213Z,2.23
2023-01-17T01:54:16.497Z,2.77
2023-01-17T01:56:23.496Z,2.67
2023-01-17T01:58:29.641Z,2.40
2023-01-17T02:00:37.181Z,2.07
2023-01-17T02:02:40.469Z,2.07
2023-01-17T02:04:44.419Z,4.07
2023-01-17T02:06:50.121Z,2.17
2023-01-17T02:08:53.778Z,1.83
2023-01-17T02:10:57.139Z,3.27
2023-01-17T02:13:01.802Z,2.93
2023-01-17T02:15:07.583Z,2.03
2023-01-17T02:17:22.728Z,2.03
2023-01-17T02:19:40.690Z,3.83
2023-01-17T02:21:53.981Z,2.67
2023-01-17T02:24:25.624Z,1.80
2023-01-17T02:26:57.555Z,1.57
2023-01-17T02:29:18.813Z,2.50
2023-01-17T02:31:28.974Z,3.60
2023-01-17T02:33:39.858Z,3.20
2023-01-17T02:35:52.531Z,2.43
2023-01-17T02:38:03.841Z,2.23
2023-01-17T02:40:11.586Z,3.53
2023-01-17T02:42:18.227Z,1.70
2023-01-17T02:44:21.829Z,2.37
2023-01-17T02:46:26.010Z,2.60
2023-01-17T02:48:32.477Z,3.23
2023-01-17T02:50:53.223Z,1.90
2023-01-17T02:53:09.484Z,1.87
2023-01-17T02:55:23.774Z,2.50
2023-01-17T02:57:44.867Z,2.20
2023-01-17T02:59:54.052Z,2.80
2023-01-17T03:02:10.099Z,3.10
2023-01-17T03:04:18.969Z,1.57
2023-01-17T03:06:26.393Z,2.90
2023-01-17T03:08:30.026Z,1.90
2023-01-17T03:10:34.840Z,2.67
2023-01-17T03:12:40.214Z,2.10
2023-01-17T03:14:42.903Z,3.07
2023-01-17T03:16:46.384Z,2.60
2023-01-17T03:18:50.612Z,1.60
2023-01-17T03:20:53.655Z,1.93
2023-01-17T03:22:56.450Z,1.70
2023-01-17T03:24:59.180Z,1.90
2023-01-17T03:27:01.919Z,2.07
2023-01-17T03:29:04.715Z,2.50
2023-01-17T03:31:07.501Z,2.07
2023-01-17T03:33:10.357Z,2.50
2023-01-17T03:35:14.589Z,4.97
2023-01-17T03:37:17.414Z,1.93
2023-01-17T03:39:20.154Z,2.80
2023-01-17T03:41:23.108Z,2.30
2023-01-17T03:43:25.927Z,2.03
2023-01-17T03:45:28.686Z,1.63
2023-01-17T03:47:31.433Z,2.10
2023-01-17T03:49:34.103Z,3.03
2023-01-17T03:51:38.127Z,3.07
2023-01-17T03:53:40.894Z,1.57
2023-01-17T03:55:46.459Z,5.23
2023-01-17T03:57:49.213Z,2.73
2023-01-17T03:59:52.227Z,1.50
2023-01-17T04:01:55.418Z,2.20
2023-01-17T04:03:58.577Z,2.63
2023-01-17T04:06:01.299Z,1.73
2023-01-17T04:08:06.977Z,2.50
2023-01-17T04:10:11.083Z,2.97
2023-01-17T04:12:13.873Z,2.87
2023-01-17T04:14:16.618Z,3.53
2023-01-17T04:16:19.675Z,1.40
2023-01-17T04:18:23.062Z,1.70
2023-01-17T04:20:33.011Z,1.57
2023-01-17T04:22:35.766Z,1.77
2023-01-17T04:24:39.813Z,2.70
2023-01-17T04:26:42.728Z,1.63
2023-01-17T04:28:45.448Z,2.53
2023-01-17T04:30:48.188Z,1.60
2023-01-17T04:32:51.219Z,3.13
2023-01-17T04:34:53.964Z,1.10
2023-01-17T04:36:56.916Z,1.87
2023-01-17T04:38:59.686Z,2.10
2023-01-17T04:41:03.749Z,1.50
2023-01-17T04:43:06.553Z,2.00
2023-01-17T04:45:10.020Z,2.67
2023-01-17T04:47:12.854Z,2.50
2023-01-17T04:49:15.607Z,4.67
2023-01-17T04:51:18.337Z,2.17
2023-01-17T04:53:21.207Z,1.93
2023-01-17T04:55:23.928Z,1.77
2023-01-17T04:57:28.016Z,2.60
2023-01-17T04:59:30.759Z,2.03
2023-01-17T05:01:33.643Z,2.27
2023-01-17T05:03:37.032Z,1.20
2023-01-17T05:05:39.848Z,1.30
2023-01-17T05:07:42.591Z,2.13
2023-01-17T05:09:45.385Z,3.03
2023-01-17T05:11:48.109Z,1.77
2023-01-17T05:13:52.188Z,3.03
2023-01-17T05:15:55.208Z,3.07
2023-01-17T05:17:57.973Z,2.40
2023-01-17T05:20:00.721Z,1.80
2023-01-17T05:22:14.854Z,4.03
2023-01-17T05:24:18.642Z,2.30
2023-01-17T05:26:21.389Z,4.03
2023-01-17T05:28:24.120Z,22.67
2023-01-17T05:30:29.443Z,9.40
2023-01-17T05:32:32.512Z,11.67
2023-01-17T05:34:35.279Z,22.97
2023-01-17T05:36:38.253Z,11.50
2023-01-17T05:38:40.983Z,11.80
2023-01-17T05:40:43.946Z,10.13
2023-01-17T05:42:47.358Z,4.13
2023-01-17T05:44:50.431Z,6.13
2023-01-17T05:46:54.577Z,5.00
2023-01-17T05:48:57.452Z,5.80
2023-01-17T05:51:01.431Z,5.87
2023-01-17T05:53:05.873Z,4.93
2023-01-17T05:55:09.644Z,7.37
2023-01-17T05:57:13.122Z,3.20
2023-01-17T05:59:17.319Z,9.00
2023-01-17T06:01:23.350Z,3.93
2023-01-17T06:03:28.128Z,3.70
2023-01-17T06:05:31.436Z,3.27
2023-01-17T06:07:34.371Z,3.70
2023-01-17T06:09:37.101Z,3.83
2023-01-17T06:11:39.802Z,4.83
2023-01-17T06:13:42.545Z,4.03
2023-01-17T06:15:45.349Z,2.90
2023-01-17T06:17:48.153Z,7.03
2023-01-17T06:19:52.306Z,4.43
2023-01-17T06:21:55.049Z,6.50
2023-01-17T06:23:57.791Z,3.93
2023-01-17T06:26:03.770Z,5.10
2023-01-17T06:28:07.290Z,5.97
2023-01-17T06:30:11.307Z,3.27
2023-01-17T06:32:14.213Z,2.93
2023-01-17T06:34:17.083Z,5.63
2023-01-17T06:36:21.197Z,5.93
2023-01-17T06:38:24.354Z,4.80
2023-01-17T06:40:27.778Z,6.90
2023-01-17T06:42:30.514Z,9.67
2023-01-17T06:44:33.450Z,14.33
2023-01-17T06:46:36.196Z,7.23
2023-01-17T06:48:38.920Z,7.50
2023-01-17T06:50:41.910Z,8.83
2023-01-17T06:52:56.177Z,7.87
2023-01-17T06:54:58.958Z,7.30
2023-01-17T06:57:01.697Z,6.73
2023-01-17T06:59:05.433Z,5.87
2023-01-17T07:01:09.184Z,10.50
2023-01-17T07:03:19.068Z,11.20
2023-01-17T07:05:22.087Z,8.60
2023-01-17T07:07:24.867Z,17.80
2023-01-17T07:09:29.169Z,16.20
2023-01-17T07:11:32.565Z,14.77
2023-01-17T07:13:36.490Z,11.50
2023-01-17T07:15:39.848Z,6.30
2023-01-17T07:17:42.643Z,8.33
2023-01-17T07:19:45.495Z,6.60
2023-01-17T07:21:51.000Z,6.33
2023-01-17T07:23:53.886Z,4.53
2023-01-17T07:25:59.311Z,5.23
2023-01-17T07:28:02.062Z,8.13
2023-01-17T07:30:05.261Z,5.70
2023-01-17T07:32:08.749Z,5.03
2023-01-17T07:34:12.243Z,6.60
2023-01-17T07:36:15.028Z,3.93
2023-01-17T07:38:19.576Z,3.87
2023-01-17T07:40:23.489Z,5.13
2023-01-17T07:42:27.596Z,4.33
2023-01-17T07:44:30.543Z,4.00
2023-01-17T07:46:33.316Z,5.07
2023-01-17T07:48:36.409Z,5.90
2023-01-17T07:50:39.805Z,5.63
2023-01-17T07:52:42.562Z,3.53
2023-01-17T07:54:45.305Z,7.20
2023-01-17T07:56:48.897Z,3.93
2023-01-17T07:58:53.032Z,6.13
2023-01-17T08:00:56.252Z,4.47
2023-01-17T08:02:59.655Z,5.00
2023-01-17T08:05:02.497Z,4.97
2023-01-17T08:07:05.265Z,6.13
2023-01-17T08:09:08.002Z,5.23
2023-01-17T08:11:10.753Z,6.90
2023-01-17T08:13:13.581Z,5.10
2023-01-17T08:15:18.942Z,4.87
2023-01-17T08:17:21.700Z,5.10
2023-01-17T08:19:24.747Z,6.27
2023-01-17T08:21:27.651Z,6.77
2023-01-17T08:23:31.515Z,6.10
2023-01-17T08:25:35.241Z,5.63
2023-01-17T08:27:38.133Z,6.50
2023-01-17T08:29:42.875Z,5.43
2023-01-17T08:31:47.310Z,6.77
2023-01-17T08:33:50.144Z,5.10
2023-01-17T08:35:53.795Z,6.80
2023-01-17T08:37:57.628Z,4.93
2023-01-17T08:40:00.590Z,7.97
2023-01-17T08:42:03.414Z,5.00
2023-01-17T08:44:06.371Z,7.23
2023-01-17T08:46:09.139Z,4.60
2023-01-17T08:48:13.423Z,5.73
2023-01-17T08:50:20.477Z,6.67
2023-01-17T08:52:23.320Z,5.57
2023-01-17T08:54:26.233Z,6.13
2023-01-17T08:56:29.200Z,4.37
2023-01-17T08:58:33.360Z,5.60
2023-01-17T09:00:36.219Z,3.73
2023-01-17T09:02:39.012Z,4.60
2023-01-17T09:04:44.964Z,4.30
2023-01-17T09:06:48.428Z,5.57
2023-01-17T09:08:54.655Z,4.23
2023-01-17T09:10:57.413Z,4.83
2023-01-17T09:13:00.148Z,5.23
2023-01-17T09:15:03.070Z,6.17
2023-01-17T09:17:07.001Z,4.63
2023-01-17T09:19:10.405Z,2.90
2023-01-17T09:21:16.859Z,4.17
2023-01-17T09:23:19.753Z,5.00
2023-01-17T09:25:22.874Z,4.17
2023-01-17T09:27:25.747Z,5.30
2023-01-17T09:29:28.559Z,3.43
2023-01-17T09:31:31.909Z,3.80
2023-01-17T09:33:34.988Z,4.47
2023-01-17T09:35:57.822Z,3.40
2023-01-17T09:38:02.246Z,3.27
2023-01-17T09:40:05.929Z,2.63
2023-01-17T09:42:21.522Z,4.17
2023-01-17T09:44:27.727Z,4.70
2023-01-17T09:46:33.044Z,4.17
2023-01-17T09:48:39.643Z,3.20
2023-01-17T09:50:45.607Z,3.97
2023-01-17T09:52:51.028Z,3.27
2023-01-17T09:54:55.375Z,2.10
2023-01-17T09:57:04.700Z,3.37
2023-01-17T09:59:32.215Z,3.17
2023-01-17T10:01:44.604Z,2.80
2023-01-17T10:04:14.585Z,2.20
2023-01-17T10:06:27.312Z,3.37
2023-01-17T10:08:46.856Z,2.20
2023-01-17T10:11:01.456Z,2.10
2023-01-17T10:13:11.791Z,2.53
2023-01-17T10:15:32.867Z,2.30
2023-01-17T10:17:46.517Z,2.10
2023-01-17T10:20:04.830Z,2.63
2023-01-17T10:22:31.001Z,1.73
2023-01-17T10:27:48.614Z,2.53
2023-01-17T10:29:54.016Z,1.80
2023-01-17T10:32:00.554Z,3.70
2023-01-17T10:34:12.899Z,2.33
2023-01-17T10:36:20.446Z,1.87
2023-01-17T10:38:29.655Z,2.80
2023-01-17T10:40:42.100Z,3.50
2023-01-17T10:42:53.127Z,1.70
2023-01-17T10:45:02.833Z,2.97
2023-01-17T10:47:15.707Z,2.03
2023-01-17T10:49:21.897Z,3.33
2023-01-17T10:51:59.931Z,2.60
2023-01-17T10:54:12.983Z,3.43
2023-01-17T10:56:18.075Z,1.70
2023-01-17T10:58:22.628Z,3.53
2023-01-17T11:00:44.645Z,2.53
2023-01-17T11:02:50.715Z,1.77
2023-01-17T11:04:55.402Z,2.73
2023-01-17T11:07:12.485Z,3.37
2023-01-17T11:09:16.981Z,3.73
2023-01-17T11:11:21.635Z,2.27
2023-01-17T11:13:30.383Z,1.97
2023-01-17T11:15:37.678Z,1.50
2023-01-17T11:17:47.238Z,2.43
2023-01-17T11:19:51.236Z,3.10
2023-01-17T11:21:58.496Z,5.03
2023-01-17T11:24:11.422Z,1.77
2023-01-17T11:26:24.517Z,3.63
2023-01-17T11:28:31.304Z,3.20
2023-01-17T11:30:34.564Z,4.10
2023-01-17T11:32:37.612Z,3.70
2023-01-17T11:34:40.389Z,5.30
2023-01-17T11:36:43.297Z,4.50
2023-01-17T11:38:57.142Z,3.37
2023-01-17T11:41:20.313Z,3.73
2023-01-17T11:43:24.856Z,4.07
2023-01-17T11:45:31.676Z,3.93
2023-01-17T11:47:34.452Z,6.47
2023-01-17T11:49:37.536Z,4.33
2023-01-17T11:51:43.082Z,3.30
2023-01-17T11:53:48.259Z,3.30
2023-01-17T11:55:57.069Z,3.10
2023-01-17T11:58:00.529Z,4.17
2023-01-17T12:00:16.578Z,4.07
2023-01-17T12:02:52.189Z,2.90
2023-01-17T12:05:03.955Z,3.17
2023-01-17T12:07:18.528Z,3.50
2023-01-17T12:09:30.053Z,3.67
2023-01-17T12:12:00.934Z,4.37
2023-01-17T12:14:12.493Z,4.80
2023-01-17T12:16:30.836Z,3.27
2023-01-17T12:18:42.148Z,3.63
2023-01-17T12:20:54.411Z,2.83
2023-01-17T12:23:13.813Z,2.70
2023-01-17T12:25:28.040Z,2.50
2023-01-17T12:27:40.615Z,4.43
2023-01-17T12:29:54.559Z,3.17
2023-01-17T12:32:15.328Z,2.43
2023-01-17T12:34:28.645Z,2.60
2023-01-17T12:36:42.992Z,2.50
2023-01-17T12:38:50.649Z,3.13
2023-01-17T12:41:00.753Z,3.03
2023-01-17T12:43:11.132Z,3.23
2023-01-17T12:45:21.339Z,2.63
2023-01-17T12:47:24.386Z,2.57
2023-01-17T12:49:42.474Z,6.03
2023-01-17T12:51:47.513Z,4.63
2023-01-17T12:53:59.888Z,4.27
2023-01-17T12:56:07.778Z,2.33
2023-01-17T12:58:17.238Z,3.43
2023-01-17T13:00:24.013Z,2.73
2023-01-17T13:02:32.607Z,3.20
2023-01-17T13:04:57.793Z,2.97
2023-01-17T13:07:10.110Z,2.60
2023-01-17T13:09:18.368Z,3.03
2023-01-17T13:11:28.899Z,2.03
2023-01-17T13:13:34.413Z,2.47
2023-01-17T13:15:44.625Z,2.40
2023-01-17T13:17:50.990Z,2.10
2023-01-17T13:20:00.922Z,2.70
2023-01-17T13:22:05.438Z,2.73
2023-01-17T13:24:23.358Z,2.33
2023-01-17T13:26:39.086Z,2.80
2023-01-17T13:28:50.399Z,2.03
2023-01-17T13:31:14.495Z,3.17
2023-01-17T13:33:29.953Z,2.40
2023-01-17T13:35:42.650Z,4.20
2023-01-17T13:37:58.926Z,4.23
2023-01-17T13:40:24.297Z,5.20
2023-01-17T13:42:39.921Z,3.10
2023-01-17T13:44:42.973Z,3.17
2023-01-17T13:47:24.411Z,2.53
2023-01-17T13:49:35.161Z,2.77
2023-01-17T13:52:04.381Z,2.60
2023-01-17T13:54:08.698Z,3.03
2023-01-17T13:56:14.669Z,3.63
2023-01-17T13:58:29.337Z,2.60
2023-01-17T14:00:54.818Z,2.03
2023-01-17T14:02:59.963Z,2.30
2023-01-17T14:05:11.005Z,2.13
2023-01-17T14:07:26.094Z,2.13
2023-01-17T14:09:41.438Z,2.60
2023-01-17T14:11:56.987Z,2.33
2023-01-17T14:14:19.935Z,1.97
2023-01-17T14:16:29.071Z,3.53
2023-01-17T14:18:34.873Z,4.63
2023-01-17T14:21:06.830Z,5.20
2023-01-17T14:23:35.186Z,4.70
2023-01-17T14:25:40.987Z,2.77
2023-01-17T14:27:48.799Z,2.50
2023-01-17T14:29:58.737Z,2.87
2023-01-17T14:32:03.092Z,2.87
2023-01-17T14:34:13.268Z,3.07
2023-01-17T14:36:28.005Z,3.97
2023-01-17T14:38:33.488Z,3.03
2023-01-17T14:40:39.407Z,2.70
2023-01-17T14:42:43.750Z,2.63
2023-01-17T14:44:48.945Z,2.87
2023-01-17T14:46:52.381Z,3.43
2023-01-17T14:49:02.543Z,2.53
2023-01-17T14:51:15.993Z,2.43
2023-01-17T14:53:21.462Z,2.93
2023-01-17T14:55:27.706Z,1.70
2023-01-17T14:57:30.978Z,2.53
2023-01-17T14:59:33.876Z,2.20
2023-01-17T15:01:36.892Z,1.93
2023-01-17T15:03:45.812Z,2.00
2023-01-17T15:05:53.695Z,2.77
2023-01-17T15:07:58.652Z,2.30
2023-01-17T15:10:03.693Z,2.07
2023-01-17T15:12:10.501Z,2.80
2023-01-17T15:14:19.961Z,2.93
2023-01-17T15:16:28.694Z,3.90
2023-01-17T15:18:37.652Z,3.37
2023-01-17T15:20:42.698Z,3.13
2023-01-17T15:22:51.842Z,4.20
2023-01-17T15:24:55.400Z,4.00
2023-01-17T15:26:58.221Z,4.07
2023-01-17T15:29:06.294Z,3.53
2023-01-17T15:31:13.215Z,3.30
2023-01-17T15:33:21.003Z,3.80
2023-01-17T15:35:24.998Z,2.80
2023-01-17T15:37:30.914Z,4.70
2023-01-17T15:39:37.830Z,2.83
2023-01-17T15:41:40.995Z,6.00
2023-01-17T15:43:45.683Z,3.83
2023-01-17T15:45:57.191Z,4.07
2023-01-17T15:48:37.480Z,5.00
2023-01-17T15:50:41.063Z,3.87
2023-01-17T15:52:50.101Z,7.37
2023-01-17T15:54:54.512Z,3.27
2023-01-17T15:57:18.511Z,3.20
2023-01-17T15:59:28.229Z,3.00
2023-01-17T16:01:32.642Z,3.20
2023-01-17T16:03:37.368Z,6.23
2023-01-17T16:05:43.402Z,2.90
2023-01-17T16:07:46.390Z,3.50
2023-01-17T16:09:49.822Z,3.73
2023-01-17T16:11:52.696Z,3.57
2023-01-17T16:13:55.576Z,4.13
2023-01-17T16:16:12.909Z,3.50
2023-01-17T16:18:19.691Z,3.83
2023-01-17T16:20:25.733Z,7.90
2023-01-17T16:22:28.563Z,5.13
2023-01-17T16:24:32.021Z,9.40
2023-01-17T16:26:35.046Z,6.47
2023-01-17T16:28:38.398Z,7.40
2023-01-17T16:30:45.066Z,7.87
2023-01-17T16:32:52.358Z,6.60
2023-01-17T16:34:58.155Z,5.50
2023-01-17T16:37:01.566Z,8.53
2023-01-17T16:39:04.901Z,8.93
2023-01-17T16:41:08.041Z,7.43
2023-01-17T16:43:17.951Z,8.83
2023-01-17T16:45:21.391Z,6.03
2023-01-17T16:47:25.114Z,4.40
2023-01-17T16:49:28.782Z,7.27
2023-01-17T16:51:34.289Z,7.13
2023-01-17T16:53:37.623Z,6.73
2023-01-17T16:55:42.556Z,6.53
2023-01-17T16:57:46.118Z,9.90
2023-01-17T16:59:50.864Z,10.80
2023-01-17T17:01:54.817Z,11.47
2023-01-17T17:03:57.635Z,15.07
2023-01-17T17:06:01.915Z,12.93
2023-01-17T17:08:06.495Z,12.80
2023-01-17T17:10:10.647Z,11.60
2023-01-17T17:12:13.650Z,12.10
2023-01-17T17:14:16.837Z,12.60
2023-01-17T17:16:22.652Z,12.50
2023-01-17T17:18:26.655Z,11.77
2023-01-17T17:20:29.437Z,14.40
2023-01-17T17:22:32.359Z,12.00
2023-01-17T17:24:36.416Z,11.93
2023-01-17T17:26:39.581Z,11.67
2023-01-17T17:28:42.292Z,12.07
2023-01-17T17:30:45.029Z,13.17
2023-01-17T17:32:48.335Z,13.67
2023-01-17T17:34:51.481Z,12.40
2023-01-17T17:36:54.441Z,12.23
2023-01-17T17:38:58.581Z,12.87
2023-01-17T17:41:07.068Z,11.00
2023-01-17T17:43:09.781Z,10.00
2023-01-17T17:45:12.858Z,10.57
2023-01-17T17:47:16.080Z,11.67
2023-01-17T17:49:18.914Z,12.97
2023-01-17T17:51:24.190Z,10.83
2023-01-17T17:53:27.952Z,11.20
2023-01-17T17:55:30.716Z,10.50
2023-01-17T17:57:35.164Z,10.53
2023-01-17T17:59:38.014Z,11.33
2023-01-17T18:01:41.029Z,11.30
2023-01-17T18:03:43.935Z,13.30
2023-01-17T18:05:47.613Z,10.13
2023-01-17T18:07:51.189Z,12.83
2023-01-17T18:09:54.149Z,11.35
2023-01-17T18:11:58.088Z,10.80
2023-01-17T18:14:04.144Z,12.93
2023-01-17T18:16:09.183Z,13.80
2023-01-17T18:18:11.952Z,14.80
2023-01-17T18:20:15.342Z,12.10
2023-01-17T18:22:18.298Z,11.93
2023-01-17T18:24:22.974Z,13.87
2023-01-17T18:26:27.200Z,16.97
2023-01-17T18:28:29.917Z,14.40
2023-01-17T18:30:38.343Z,16.27
2023-01-17T18:32:41.834Z,13.13
2023-01-17T18:34:44.888Z,11.50
2023-01-17T18:36:47.894Z,11.30
2023-01-17T18:38:51.843Z,13.33
2023-01-17T18:40:54.565Z,11.87
2023-01-17T18:42:57.491Z,11.07
2023-01-17T18:45:00.264Z,13.80
2023-01-17T18:47:05.442Z,12.83
2023-01-17T18:49:08.487Z,13.50
2023-01-17T18:51:15.329Z,11.20
2023-01-17T18:53:18.241Z,15.30
2023-01-17T18:55:21.130Z,12.10
2023-01-17T18:57:24.017Z,11.30
2023-01-17T18:59:26.742Z,12.00
2023-01-17T19:01:34.269Z,11.40
2023-01-17T19:03:40.486Z,11.30
2023-01-17T19:05:43.376Z,10.57
2023-01-17T19:07:46.104Z,13.40
2023-01-17T19:09:48.971Z,11.30
2023-01-17T19:11:51.711Z,12.53
2023-01-17T19:13:54.677Z,11.50
2023-01-17T19:16:00.713Z,14.17
2023-01-17T19:18:03.734Z,11.50
2023-01-17T19:20:09.011Z,9.70
2023-01-17T19:22:11.721Z,10.20
2023-01-17T19:24:14.670Z,11.30
2023-01-17T19:26:19.692Z,12.37
2023-01-17T19:28:22.971Z,11.70
2023-01-17T19:30:25.794Z,11.53
2023-01-17T19:32:28.514Z,10.73
2023-01-17T19:34:31.298Z,9.83
2023-01-17T19:36:37.481Z,8.90
2023-01-17T19:38:40.785Z,8.93
2023-01-17T19:40:43.508Z,10.53
2023-01-17T19:42:46.659Z,9.37
2023-01-17T19:44:49.602Z,10.63
2023-01-17T19:46:52.327Z,11.13
2023-01-17T19:48:55.859Z,9.87
2023-01-17T19:51:04.894Z,12.20
2023-01-17T19:53:08.909Z,13.30
2023-01-17T19:55:11.930Z,13.40
2023-01-17T19:57:14.833Z,9.80
2023-01-17T19:59:19.901Z,10.80
2023-01-17T20:01:26.468Z,8.97
2023-01-17T20:03:29.237Z,9.43
2023-01-17T20:05:33.432Z,10.20
2023-01-17T20:07:36.200Z,11.87
2023-01-17T20:09:40.240Z,9.90
2023-01-17T20:11:43.097Z,10.23
2023-01-17T20:13:46.386Z,10.37
2023-01-17T20:15:49.285Z,8.87
2023-01-17T20:17:51.985Z,9.40
2023-01-17T20:19:54.690Z,12.07
2023-01-17T20:21:57.389Z,9.43
2023-01-17T20:24:03.117Z,8.73
2023-01-17T20:26:07.482Z,15.20
2023-01-17T20:28:10.231Z,13.63
2023-01-17T20:30:20.193Z,12.47
2023-01-17T20:32:23.656Z,13.50
2023-01-17T20:34:26.551Z,13.13
2023-01-17T20:36:29.899Z,11.23
2023-01-17T20:38:43.401Z,9.87
2023-01-17T20:40:54.052Z,8.57
2023-01-17T20:42:58.161Z,10.30
2023-01-17T20:45:01.091Z,10.87
2023-01-17T20:47:03.809Z,13.73
2023-01-17T20:49:07.938Z,12.30
2023-01-17T20:51:12.163Z,10.37
2023-01-17T20:53:16.131Z,10.70
2023-01-17T20:55:19.416Z,15.73
2023-01-17T20:57:22.764Z,10.27
2023-01-17T20:59:26.888Z,9.47
2023-01-17T21:01:29.850Z,9.53
2023-01-17T21:03:35.259Z,14.47
2023-01-17T21:05:38.104Z,14.37
2023-01-17T21:07:40.850Z,14.63
2023-01-17T21:09:43.640Z,15.90
2023-01-17T21:11:46.497Z,13.37
2023-01-17T21:13:49.728Z,20.17
2023-01-17T21:15:54.277Z,15.23
2023-01-17T21:17:57.283Z,17.83
2023-01-17T21:20:00.212Z,13.63
2023-01-17T21:22:05.263Z,14.33
2023-01-17T21:24:08.468Z,10.57
2023-01-17T21:26:14.509Z,11.90
2023-01-17T21:28:17.298Z,10.80
2023-01-17T21:30:20.181Z,10.93
2023-01-17T21:32:24.693Z,13.50
2023-01-17T21:34:27.730Z,12.30
2023-01-17T21:36:32.954Z,10.73
2023-01-17T21:38:35.729Z,12.47
2023-01-17T21:40:38.471Z,13.10
2023-01-17T21:42:41.455Z,11.60
2023-01-17T21:44:45.142Z,9.43
2023-01-17T21:46:48.804Z,11.57
2023-01-17T21:48:52.900Z,11.83
2023-01-17T21:50:55.635Z,9.73
2023-01-17T21:52:58.704Z,9.93
2023-01-17T21:55:18.998Z,12.27
2023-01-17T21:57:40.599Z,12.63
2023-01-17T21:59:43.511Z,9.77
2023-01-17T22:01:46.337Z,11.80
2023-01-17T22:03:50.867Z,10.60
2023-01-17T22:05:56.442Z,10.03
2023-01-17T22:08:15.092Z,11.63
2023-01-17T22:10:18.283Z,12.80
2023-01-17T22:12:21.059Z,15.13
2023-01-17T22:14:23.753Z,11.13
2023-01-17T22:16:27.096Z,11.30
2023-01-17T22:18:30.976Z,12.30
2023-01-17T22:20:34.025Z,11.03
2023-01-17T22:22:38.435Z,12.73
2023-01-17T22:24:41.279Z,12.90
2023-01-17T22:26:44.208Z,11.07
2023-01-17T22:28:47.027Z,12.27
2023-01-17T22:30:50.214Z,12.63
2023-01-17T22:32:53.044Z,12.13
2023-01-17T22:34:55.760Z,10.00
2023-01-17T22:36:58.647Z,12.03
2023-01-17T22:39:02.794Z,12.80
2023-01-17T22:41:08.564Z,10.40
2023-01-17T22:43:11.426Z,12.00
2023-01-17T22:45:14.645Z,13.83
2023-01-17T22:47:17.381Z,11.30
2023-01-17T22:49:23.258Z,14.53
2023-01-17T22:51:27.908Z,12.17
2023-01-17T22:53:31.163Z,12.17
2023-01-17T22:55:35.462Z,10.30
2023-01-17T22:57:38.283Z,13.17
2023-01-17T22:59:41.007Z,13.83
2023-01-17T23:01:43.825Z,11.67
2023-01-17T23:03:47.619Z,14.93
2023-01-17T23:05:50.577Z,11.60
2023-01-17T23:07:53.457Z,12.77
2023-01-17T23:09:56.151Z,11.50
2023-01-17T23:11:59.342Z,15.07
2023-01-17T23:14:02.301Z,13.07
2023-01-17T23:16:25.804Z,12.00
2023-01-17T23:18:46.158Z,13.13
2023-01-17T23:20:48.927Z,12.10
2023-01-17T23:22:51.721Z,11.27
2023-01-17T23:24:56.431Z,13.57
2023-01-17T23:27:18.071Z,14.73
2023-01-17T23:29:20.925Z,12.83
2023-01-17T23:31:24.371Z,11.90
2023-01-17T23:33:27.490Z,15.53
2023-01-17T23:35:32.359Z,13.90
2023-01-17T23:37:52.945Z,12.00
2023-01-17T23:39:55.717Z,13.50
2023-01-17T23:42:17.396Z,13.47
2023-01-17T23:44:20.116Z,12.60
2023-01-17T23:46:24.396Z,12.80
2023-01-17T23:48:27.973Z,11.87
2023-01-17T23:50:30.711Z,14.03
2023-01-17T23:52:33.437Z,13.80
2023-01-17T23:54:36.179Z,12.57
2023-01-17T23:56:39.165Z,11.90
2023-01-17T23:58:43.327Z,14.10
